Home   Weather   China   Shanghai   Past weeks
Flag for China

Past Weather in Shanghai, Shanghai Municipality, China — Yesterday and Last 2 Weeks

Currently: 95 °F. Sunny. (Weather station: Shanghai Hongqiao Airport, China). See more current weather

Past Weather in Shanghai — Graph

°F

Shanghai Temperature Yesterday

Maximum temperature yesterday: 97 °F (at 1:00 pm)
Minimum temperature yesterday: 81 °F (at 2:30 am)
Average temperature yesterday: 89 °F

High & Low Weather Summary for the Past Weeks

 TemperatureHumidityPressure
High97 °F (Jun 23, 1:00 pm)94% (Jun 24, 7:00 am)29.86 "Hg (Jun 24, 7:00 am)
Low75 °F (Jun 24, 7:00 am)44% (Jun 23, 1:00 pm)29.50 "Hg (Jul 5, 3:30 pm)
Average86 °F71%29.66 "Hg
* Reported Jun 21 12:00 pm — Jul 6 12:00 pm, Shanghai. Weather by CustomWeather, © 2022

Note: Actual official high and low records may vary slightly from our data, if they occured in-between our weather recording intervals... More about our weather records

Shanghai Weather History for the Previous 24 Hours

Scroll right to see more
 ConditionsComfort  
Time TempWeatherWind HumidityBarometerVisibility
12:00 pm
Wed, Jul 6
95 °FPassing clouds.15 mph53%29.56 "HgN/A
11:30 am95 °FPassing clouds.13 mph53%29.56 "HgN/A
11:00 am95 °FPassing clouds.15 mph53%29.56 "HgN/A
10:30 am93 °FSunny.13 mph56%29.56 "Hg10 mi
10:00 am93 °FSunny.15 mph59%29.59 "Hg10 mi
9:30 am91 °FSunny.15 mph63%29.59 "Hg10 mi
9:00 am91 °FSunny.15 mph59%29.59 "Hg10 mi
7:30 am88 °FSunny.13 mph70%29.59 "Hg10 mi
7:00 am86 °FSunny.13 mph75%29.59 "Hg10 mi
6:30 am86 °FSunny.10 mph75%29.59 "Hg10 mi
6:00 am84 °FSunny.10 mph79%29.56 "Hg10 mi
5:00 am84 °FSunny.13 mph79%29.56 "Hg10 mi
4:30 am84 °FClear.10 mph79%29.56 "Hg10 mi
4:00 am84 °FClear.10 mph79%29.53 "Hg10 mi
3:30 am84 °FClear.8 mph79%29.53 "Hg10 mi
3:00 am84 °FClear.8 mph79%29.53 "Hg10 mi
2:00 am86 °FClear.10 mph75%29.53 "Hg10 mi
1:30 am86 °FClear.13 mph75%29.53 "Hg10 mi
1:00 am86 °FClear.15 mph75%29.56 "Hg10 mi
12:30 am86 °FClear.10 mph75%29.56 "Hg10 mi
12:00 am86 °FClear.10 mph75%29.56 "Hg10 mi
11:30 pm
Tue, Jul 5
88 °FClear.10 mph75%29.56 "Hg10 mi
11:00 pm88 °FClear.10 mph75%29.53 "Hg10 mi
10:00 pm88 °FClear.10 mph75%29.56 "Hg10 mi
9:30 pm88 °FClear.10 mph75%29.56 "Hg10 mi
9:00 pm88 °FClear.10 mph75%29.56 "Hg10 mi
8:30 pm88 °FClear.10 mph75%29.53 "Hg10 mi
8:00 pm90 °FClear.13 mph71%29.53 "Hg10 mi
7:00 pm91 °FSunny.10 mph63%29.53 "Hg10 mi
6:30 pm91 °FSunny.10 mph63%29.53 "Hg10 mi
6:00 pm93 °FPassing clouds.13 mph59%29.50 "HgN/A
5:30 pm95 °FSunny.13 mph60%29.50 "Hg10 mi
5:00 pm95 °FSunny.13 mph56%29.50 "Hg10 mi
4:30 pm97 °FPassing clouds.10 mph53%29.50 "HgN/A
4:00 pm97 °FPassing clouds.10 mph50%29.50 "HgN/A
3:30 pm97 °FPassing clouds.10 mph50%29.50 "HgN/A
3:00 pm97 °FPassing clouds.10 mph50%29.53 "HgN/A
2:30 pm97 °FPassing clouds.8 mph53%29.53 "HgN/A
2:00 pm97 °FScattered clouds.8 mph53%29.53 "HgN/A
1:30 pm97 °FScattered clouds.10 mph53%29.53 "HgN/A
1:00 pm97 °FPartly sunny.8 mph56%29.56 "HgN/A
Weather by CustomWeather, © 2022

See weather overview